Time;durP1;ratioP1;P1;durP2;ratioP2;P2;SDS_P1;SDS_P2;PMS_P1;PMS_P2;Temp;Humidity;BMP_temperature;BMP_pressure;BME280_temperature;BME280_humidity;BME280_pressure;Samples;Min_cycle;Max_cycle;Signal;HPM_P1;HPM_P2
2021/11/04 00:01:00;;;;;;;57.33;25.10;;;;;;;;;;5019063;28;20928;-71
2021/11/04 00:03:26;;;;;;;41.67;22.00;;;;;;;;;;5004864;28;20639;-73
2021/11/04 00:05:51;;;;;;;65.37;23.73;;;;;;;;;;5008165;28;20531;-72
2021/11/04 00:08:16;;;;;;;73.73;21.97;;;;;;;;;;5007232;28;20797;-72
2021/11/04 00:10:42;;;;;;;69.20;21.53;;;;;;;;;;5012676;28;20174;-72
2021/11/04 00:13:07;;;;;;;78.80;23.00;;;;;;;;;;5015377;28;20178;-72
2021/11/04 00:15:32;;;;;;;60.80;22.20;;;;;;;;;;5015373;28;20217;-72
2021/11/04 00:17:59;;;;;;;99.40;23.67;;;;;;;;;;5021097;28;20193;-72
2021/11/04 00:20:24;;;;;;;54.30;21.33;;;;;;;;;;5014326;28;20178;-73
2021/11/04 00:22:49;;;;;;;71.00;21.97;;;;;;;;;;5014314;28;20721;-72
2021/11/04 00:25:17;;;;;;;42.43;20.30;;;;;;;;;;5014435;28;20801;-73
2021/11/04 00:27:42;;;;;;;41.27;20.47;;;;;;;;;;5019571;28;20213;-72
2021/11/04 00:30:09;;;;;;;113.10;24.87;;;;;;;;;;5016639;28;20193;-72
2021/11/04 00:32:34;;;;;;;83.63;21.97;;;;;;;;;;5015438;28;20701;-72
2021/11/04 00:34:59;;;;;;;78.03;22.60;;;;;;;;;;5011280;28;20300;-73
2021/11/04 00:37:25;;;;;;;32.20;19.37;;;;;;;;;;5013176;28;20190;-72
2021/11/04 00:39:50;;;;;;;30.77;19.87;;;;;;;;;;5013504;28;20194;-72
2021/11/04 00:42:15;;;;;;;86.17;20.93;;;;;;;;;;5014330;28;20209;-72
2021/11/04 00:44:40;;;;;;;56.70;18.67;;;;;;;;;;5016146;28;20206;-72
2021/11/04 00:47:05;;;;;;;108.70;23.07;;;;;;;;;;5014092;28;20252;-72
2021/11/04 00:49:31;;;;;;;70.30;19.30;;;;;;;;;;5014159;28;20167;-72
2021/11/04 00:51:56;;;;;;;61.10;19.77;;;;;;;;;;5010390;28;20244;-73
2021/11/04 00:54:21;;;;;;;58.47;20.23;;;;;;;;;;5014144;28;20237;-72
2021/11/04 00:56:46;;;;;;;76.57;21.00;;;;;;;;;;5025662;28;20200;-72
2021/11/04 00:59:11;;;;;;;49.03;18.07;;;;;;;;;;5014811;28;20264;-72
2021/11/04 01:01:37;;;;;;;79.73;20.43;;;;;;;;;;5018129;28;20694;-72
2021/11/04 01:04:02;;;;;;;40.57;17.03;;;;;;;;;;5014188;28;20206;-72
2021/11/04 01:06:27;;;;;;;49.13;17.50;;;;;;;;;;5014970;28;20332;-72
2021/11/04 01:08:52;;;;;;;23.00;16.17;;;;;;;;;;5015339;28;20190;-72
2021/11/04 01:11:18;;;;;;;50.97;17.57;;;;;;;;;;5017923;28;20273;-72
2021/11/04 01:13:44;;;;;;;24.50;15.97;;;;;;;;;;5016012;28;20171;-72
2021/11/04 01:16:09;;;;;;;45.43;17.63;;;;;;;;;;5016303;28;20714;-72
2021/11/04 01:18:35;;;;;;;43.20;17.27;;;;;;;;;;5024003;28;20178;-73
2021/11/04 01:21:00;;;;;;;45.20;17.70;;;;;;;;;;5013539;28;20186;-72
2021/11/04 01:23:25;;;;;;;78.70;18.23;;;;;;;;;;5011548;28;20628;-72
2021/11/04 01:25:51;;;;;;;65.60;17.47;;;;;;;;;;5013768;28;20218;-74
2021/11/04 01:28:17;;;;;;;36.20;16.33;;;;;;;;;;5014115;28;20234;-72
2021/11/04 01:30:42;;;;;;;33.10;16.23;;;;;;;;;;5012275;28;20186;-71
2021/11/04 01:33:08;;;;;;;55.67;17.00;;;;;;;;;;5011121;28;20691;-72
2021/11/04 01:35:33;;;;;;;41.20;16.23;;;;;;;;;;5006629;28;21025;-73
2021/11/04 01:37:59;;;;;;;72.20;17.83;;;;;;;;;;5010639;28;21642;-71
2021/11/04 01:40:24;;;;;;;47.20;15.63;;;;;;;;;;5011930;28;20481;-73
2021/11/04 01:42:49;;;;;;;89.30;19.27;;;;;;;;;;5014191;28;20185;-73
2021/11/04 01:45:14;;;;;;;61.20;18.03;;;;;;;;;;5010122;28;20706;-72
2021/11/04 01:47:41;;;;;;;48.43;18.40;;;;;;;;;;5012121;28;20201;-72
2021/11/04 01:50:07;;;;;;;38.70;16.80;;;;;;;;;;5010833;28;20339;-71
2021/11/04 01:52:32;;;;;;;57.50;18.57;;;;;;;;;;5011531;28;20182;-71
2021/11/04 01:54:57;;;;;;;130.57;20.43;;;;;;;;;;5008573;28;20691;-72
2021/11/04 01:57:23;;;;;;;101.37;20.23;;;;;;;;;;5013164;28;20509;-73
2021/11/04 01:59:48;;;;;;;167.00;22.60;;;;;;;;;;5010208;28;20182;-71
2021/11/04 02:02:23;;;;;;;56.17;16.83;;;;;;;;;;5010480;28;20766;-71
2021/11/04 02:04:58;;;;;;;92.53;18.17;;;;;;;;;;5009858;28;20205;-71
2021/11/04 02:07:33;;;;;;;63.47;17.27;;;;;;;;;;5009425;28;20210;-71
2021/11/04 02:10:22;;;;;;;73.27;17.93;;;;;;;;;;5009126;28;20539;-73
2021/11/04 02:13:10;;;;;;;111.23;18.27;;;;;;;;;;5007279;28;20202;-73
2021/11/04 02:15:37;;;;;;;87.83;17.43;;;;;;;;;;5012217;28;20218;-73
2021/11/04 02:18:07;;;;;;;61.87;14.90;;;;;;;;;;5018036;28;20261;-73
2021/11/04 02:20:43;;;;;;;70.63;14.40;;;;;;;;;;5010543;28;20277;-73
2021/11/04 02:23:26;;;;;;;108.37;17.53;;;;;;;;;;5013218;28;20675;-73
2021/11/04 02:25:52;;;;;;;49.83;13.17;;;;;;;;;;5010948;28;20570;-73
2021/11/04 02:28:19;;;;;;;92.53;14.77;;;;;;;;;;5013160;28;20423;-71
2021/11/04 02:30:45;;;;;;;106.00;15.20;;;;;;;;;;5008647;28;20202;-73
2021/11/04 02:33:10;;;;;;;118.77;16.30;;;;;;;;;;5008861;28;20174;-71
2021/11/04 02:35:36;;;;;;;60.63;14.07;;;;;;;;;;5008347;28;20612;-71
2021/11/04 02:38:02;;;;;;;112.90;15.60;;;;;;;;;;5008271;28;20190;-71
2021/11/04 02:40:27;;;;;;;78.97;13.40;;;;;;;;;;5010590;28;20241;-73
2021/11/04 02:42:53;;;;;;;120.30;15.63;;;;;;;;;;5008759;28;20268;-73
2021/11/04 02:45:19;;;;;;;165.73;17.97;;;;;;;;;;5023695;28;20206;-73
2021/11/04 02:47:44;;;;;;;34.33;10.87;;;;;;;;;;5010324;28;20209;-71
2021/11/04 02:50:09;;;;;;;33.03;10.87;;;;;;;;;;5008155;28;20182;-71
2021/11/04 02:52:35;;;;;;;42.70;10.87;;;;;;;;;;5010124;28;20182;-73
2021/11/04 02:55:03;;;;;;;59.20;11.90;;;;;;;;;;5009497;28;20560;-71
2021/11/04 02:57:28;;;;;;;25.33;10.27;;;;;;;;;;5007884;28;20694;-71
2021/11/04 02:59:53;;;;;;;29.53;10.87;;;;;;;;;;5010946;28;20865;-71
2021/11/04 03:02:19;;;;;;;13.70;9.63;;;;;;;;;;5007446;28;20218;-74
2021/11/04 03:04:44;;;;;;;44.10;10.97;;;;;;;;;;5014306;28;20225;-71
2021/11/04 03:07:09;;;;;;;14.73;9.87;;;;;;;;;;5008241;28;20272;-71
2021/11/04 03:09:35;;;;;;;30.60;10.40;;;;;;;;;;5012266;28;20331;-71
2021/11/04 03:12:01;;;;;;;33.27;11.20;;;;;;;;;;5007404;28;20220;-71
2021/11/04 03:14:26;;;;;;;42.07;11.00;;;;;;;;;;5007832;28;20280;-73
2021/11/04 03:16:53;;;;;;;29.77;10.23;;;;;;;;;;5011478;28;20315;-72
2021/11/04 03:19:19;;;;;;;24.70;9.53;;;;;;;;;;5011831;28;20192;-71
2021/11/04 03:21:47;;;;;;;27.77;9.57;;;;;;;;;;5008222;28;20273;-72
2021/11/04 03:24:13;;;;;;;28.87;9.73;;;;;;;;;;5008298;28;20237;-72
2021/11/04 03:26:40;;;;;;;22.67;10.13;;;;;;;;;;5010642;28;20199;-72
2021/11/04 03:29:06;;;;;;;32.90;11.20;;;;;;;;;;5012128;28;20179;-72
2021/11/04 03:31:34;;;;;;;27.43;10.83;;;;;;;;;;5010163;28;20280;-72
2021/11/04 03:34:00;;;;;;;23.87;11.33;;;;;;;;;;5010859;28;20202;-72
2021/11/04 03:36:25;;;;;;;19.07;11.10;;;;;;;;;;5008122;28;20244;-72
2021/11/04 03:38:51;;;;;;;30.23;12.27;;;;;;;;;;5008992;28;20285;-72
2021/11/04 03:41:17;;;;;;;29.03;12.27;;;;;;;;;;5008010;28;20660;-73
2021/11/04 03:43:43;;;;;;;58.93;13.77;;;;;;;;;;5019883;28;20183;-71
2021/11/04 03:46:08;;;;;;;31.23;11.90;;;;;;;;;;5008808;28;20182;-71
2021/11/04 03:48:37;;;;;;;25.17;11.90;;;;;;;;;;5006319;28;20183;-73
2021/11/04 03:51:03;;;;;;;20.77;12.30;;;;;;;;;;5008391;28;20277;-73
2021/11/04 03:53:28;;;;;;;20.00;12.10;;;;;;;;;;5008382;28;20178;-72
2021/11/04 03:55:54;;;;;;;29.57;12.73;;;;;;;;;;5012477;28;20199;-72
2021/11/04 03:58:19;;;;;;;13.17;11.80;;;;;;;;;;5008865;28;20408;-72
2021/11/04 04:00:44;;;;;;;31.83;13.43;;;;;;;;;;5009751;28;20651;-72
2021/11/04 04:03:09;;;;;;;17.37;12.40;;;;;;;;;;5007440;28;20861;-72
2021/11/04 04:05:35;;;;;;;31.33;12.20;;;;;;;;;;5009644;28;20299;-72
2021/11/04 04:08:00;;;;;;;23.63;12.27;;;;;;;;;;5014334;28;20548;-72
2021/11/04 04:10:27;;;;;;;17.90;11.90;;;;;;;;;;5010128;28;20575;-72
2021/11/04 04:12:53;;;;;;;44.90;12.90;;;;;;;;;;5021241;28;20742;-72
2021/11/04 04:15:18;;;;;;;37.50;12.77;;;;;;;;;;5008596;28;20285;-73
2021/11/04 04:17:44;;;;;;;145.37;17.53;;;;;;;;;;5012776;28;20227;-73
2021/11/04 04:20:09;;;;;;;37.00;11.93;;;;;;;;;;5009735;28;20181;-72
2021/11/04 04:22:35;;;;;;;40.67;13.07;;;;;;;;;;5007428;28;20182;-73
2021/11/04 04:25:00;;;;;;;76.50;15.50;;;;;;;;;;5008015;28;20214;-72
2021/11/04 04:27:25;;;;;;;86.10;16.23;;;;;;;;;;5009919;28;20214;-72
2021/11/04 04:29:50;;;;;;;184.33;18.10;;;;;;;;;;5007187;28;20174;-72
2021/11/04 04:32:16;;;;;;;51.37;14.17;;;;;;;;;;5015141;28;20179;-72
2021/11/04 04:34:42;;;;;;;31.73;12.17;;;;;;;;;;5009018;28;20854;-72
2021/11/04 04:37:07;;;;;;;37.83;12.47;;;;;;;;;;5008041;28;20182;-71
2021/11/04 04:39:33;;;;;;;45.67;14.40;;;;;;;;;;5006636;28;20183;-73
2021/11/04 04:41:58;;;;;;;45.57;13.50;;;;;;;;;;5008484;28;20659;-72
2021/11/04 04:44:24;;;;;;;17.47;11.47;;;;;;;;;;5011120;28;20214;-72
2021/11/04 04:46:49;;;;;;;42.67;12.43;;;;;;;;;;5009112;28;20198;-71
2021/11/04 04:49:14;;;;;;;22.73;11.77;;;;;;;;;;5006623;28;20189;-72
2021/11/04 04:51:39;;;;;;;26.97;11.37;;;;;;;;;;5009227;28;20183;-71
2021/11/04 04:54:04;;;;;;;24.73;11.60;;;;;;;;;;5009233;28;20218;-72
2021/11/04 04:56:30;;;;;;;16.40;11.87;;;;;;;;;;5018175;28;20393;-73
2021/11/04 04:58:55;;;;;;;16.87;12.30;;;;;;;;;;5011988;28;20667;-73
2021/11/04 05:01:20;;;;;;;17.43;12.83;;;;;;;;;;5011467;28;20179;-71
2021/11/04 05:03:45;;;;;;;15.50;12.77;;;;;;;;;;5011056;28;20206;-73
2021/11/04 05:06:10;;;;;;;15.40;12.70;;;;;;;;;;5011991;28;20636;-72
2021/11/04 05:08:35;;;;;;;15.73;12.93;;;;;;;;;;5014421;28;20316;-71
2021/11/04 05:11:01;;;;;;;14.93;12.63;;;;;;;;;;5011685;28;20231;-70
2021/11/04 05:13:26;;;;;;;21.23;14.60;;;;;;;;;;5012905;28;21088;-72
2021/11/04 05:15:51;;;;;;;13.93;12.00;;;;;;;;;;5010906;28;20185;-71
2021/11/04 05:18:16;;;;;;;15.60;13.57;;;;;;;;;;5014631;28;20182;-71
2021/11/04 05:20:42;;;;;;;15.27;13.57;;;;;;;;;;5012558;28;20197;-73
2021/11/04 05:23:07;;;;;;;15.03;12.63;;;;;;;;;;5012146;28;20447;-72
2021/11/04 05:25:32;;;;;;;13.50;12.13;;;;;;;;;;5011266;28;20293;-72
2021/11/04 05:27:57;;;;;;;13.77;12.27;;;;;;;;;;5013653;28;20213;-72
2021/11/04 05:30:23;;;;;;;14.53;12.30;;;;;;;;;;5009965;28;20197;-72
2021/11/04 05:32:48;;;;;;;16.83;13.57;;;;;;;;;;5006872;28;20189;-72
2021/11/04 05:35:14;;;;;;;16.77;12.23;;;;;;;;;;5012186;28;20198;-72
2021/11/04 05:37:39;;;;;;;24.50;14.50;;;;;;;;;;5009833;28;20748;-72
2021/11/04 05:40:05;;;;;;;21.67;13.53;;;;;;;;;;5010352;28;20194;-72
2021/11/04 05:42:31;;;;;;;26.40;14.33;;;;;;;;;;5010390;28;20187;-73
2021/11/04 05:44:56;;;;;;;22.80;14.83;;;;;;;;;;5012031;28;22191;-71
2021/11/04 05:47:21;;;;;;;17.40;12.97;;;;;;;;;;5011098;28;20653;-71
2021/11/04 05:49:46;;;;;;;18.63;14.37;;;;;;;;;;5010673;28;20179;-71
2021/11/04 05:52:13;;;;;;;16.30;13.00;;;;;;;;;;5011635;28;20675;-71
2021/11/04 05:54:39;;;;;;;18.83;13.67;;;;;;;;;;5010829;28;20910;-71
2021/11/04 05:57:05;;;;;;;16.17;13.23;;;;;;;;;;5013549;28;20273;-72
2021/11/04 05:59:30;;;;;;;18.43;13.07;;;;;;;;;;5011078;28;20244;-72
2021/11/04 06:01:56;;;;;;;24.03;12.53;;;;;;;;;;5011229;28;20330;-71
2021/11/04 06:04:21;;;;;;;17.33;13.63;;;;;;;;;;5009951;28;20206;-71
2021/11/04 06:06:47;;;;;;;22.77;13.60;;;;;;;;;;5009171;28;20214;-72
2021/11/04 06:09:12;;;;;;;15.63;13.93;;;;;;;;;;5009036;28;20194;-72
2021/11/04 06:11:38;;;;;;;16.13;13.30;;;;;;;;;;5010417;28;20200;-73
2021/11/04 06:14:03;;;;;;;14.57;12.87;;;;;;;;;;5011775;28;20217;-71
2021/11/04 06:16:29;;;;;;;16.90;13.53;;;;;;;;;;5012375;28;20194;-71
2021/11/04 06:18:54;;;;;;;14.20;12.70;;;;;;;;;;5011196;28;20742;-71
2021/11/04 06:21:20;;;;;;;14.33;12.80;;;;;;;;;;5010095;28;20216;-71
2021/11/04 06:23:45;;;;;;;14.07;12.33;;;;;;;;;;5014894;28;20180;-73
2021/11/04 06:26:10;;;;;;;14.93;12.23;;;;;;;;;;5014050;28;20883;-71
2021/11/04 06:28:36;;;;;;;14.60;12.57;;;;;;;;;;5011142;28;20291;-71
2021/11/04 06:31:01;;;;;;;14.10;12.50;;;;;;;;;;5011795;28;20277;-73
2021/11/04 06:33:26;;;;;;;16.20;12.70;;;;;;;;;;5010759;28;20549;-72
2021/11/04 06:35:53;;;;;;;14.60;12.67;;;;;;;;;;5009939;28;20178;-73
2021/11/04 06:38:19;;;;;;;15.80;14.00;;;;;;;;;;5007195;28;20190;-72
2021/11/04 06:40:44;;;;;;;16.37;13.03;;;;;;;;;;5012118;28;20194;-72
2021/11/04 06:43:12;;;;;;;13.87;12.17;;;;;;;;;;5022816;28;20241;-72
2021/11/04 06:45:37;;;;;;;14.63;12.47;;;;;;;;;;5010498;28;20687;-72
2021/11/04 06:48:03;;;;;;;16.07;14.30;;;;;;;;;;5009526;28;20205;-72
2021/11/04 06:50:31;;;;;;;16.73;13.10;;;;;;;;;;5009211;28;20598;-72
2021/11/04 06:52:59;;;;;;;16.30;12.03;;;;;;;;;;5006703;28;20209;-72
2021/11/04 06:55:25;;;;;;;14.73;13.23;;;;;;;;;;5011181;28;20197;-72
2021/11/04 06:57:52;;;;;;;14.73;13.23;;;;;;;;;;5011190;28;20194;-72
2021/11/04 07:00:17;;;;;;;17.93;14.40;;;;;;;;;;5008885;28;20708;-72
2021/11/04 07:02:45;;;;;;;14.50;13.00;;;;;;;;;;5008731;28;20216;-71
2021/11/04 07:05:13;;;;;;;14.53;12.47;;;;;;;;;;5008604;28;20377;-72
2021/11/04 07:07:47;;;;;;;15.07;13.00;;;;;;;;;;5008756;28;20198;-71
2021/11/04 07:10:13;;;;;;;15.63;13.50;;;;;;;;;;5009310;28;20186;-72
2021/11/04 07:12:43;;;;;;;15.73;13.03;;;;;;;;;;5009432;28;20178;-72
2021/11/04 07:15:08;;;;;;;16.07;13.60;;;;;;;;;;5008111;28;20199;-72
2021/11/04 07:17:34;;;;;;;13.97;12.33;;;;;;;;;;5012357;28;20787;-72
2021/11/04 07:20:00;;;;;;;12.53;11.07;;;;;;;;;;5018338;28;20227;-72
2021/11/04 07:22:32;;;;;;;14.87;12.83;;;;;;;;;;5020182;28;20548;-72
2021/11/04 07:25:01;;;;;;;15.30;13.70;;;;;;;;;;5032501;28;20294;-73
2021/11/04 07:27:36;;;;;;;14.17;12.77;;;;;;;;;;5029892;28;20213;-73
2021/11/04 07:30:05;;;;;;;12.97;11.63;;;;;;;;;;5030230;28;20178;-72
2021/11/04 07:32:31;;;;;;;15.33;11.67;;;;;;;;;;5030807;28;20173;-73
2021/11/04 07:34:57;;;;;;;14.13;12.63;;;;;;;;;;5025045;28;20222;-72
2021/11/04 07:37:25;;;;;;;17.57;13.50;;;;;;;;;;5030517;28;20589;-73
2021/11/04 07:39:50;;;;;;;14.70;13.13;;;;;;;;;;5033804;28;20201;-73
2021/11/04 07:42:15;;;;;;;14.73;13.00;;;;;;;;;;5029455;28;20174;-72
2021/11/04 07:44:40;;;;;;;14.87;13.37;;;;;;;;;;5032142;28;20256;-73
2021/11/04 07:47:06;;;;;;;14.63;13.13;;;;;;;;;;5030721;28;20661;-72
2021/11/04 07:49:32;;;;;;;16.07;14.20;;;;;;;;;;5025891;28;20802;-72
2021/11/04 07:52:00;;;;;;;14.00;12.60;;;;;;;;;;5028476;28;20261;-73
2021/11/04 07:54:26;;;;;;;13.60;12.20;;;;;;;;;;5030116;28;20697;-72
2021/11/04 07:56:51;;;;;;;12.20;11.00;;;;;;;;;;5030754;28;20257;-74
2021/11/04 07:59:16;;;;;;;11.93;10.77;;;;;;;;;;5030273;28;20261;-74
2021/11/04 08:01:42;;;;;;;12.03;10.70;;;;;;;;;;5030434;28;20185;-73
2021/11/04 08:04:07;;;;;;;10.93;9.93;;;;;;;;;;5035253;28;20198;-73
2021/11/04 08:06:32;;;;;;;13.00;10.57;;;;;;;;;;5029229;28;20182;-73
2021/11/04 08:08:57;;;;;;;11.30;10.07;;;;;;;;;;5029914;28;20198;-73
2021/11/04 08:11:22;;;;;;;10.73;9.73;;;;;;;;;;5029242;28;20703;-73
2021/11/04 08:13:48;;;;;;;11.40;10.20;;;;;;;;;;5029146;28;20296;-73
2021/11/04 08:16:13;;;;;;;12.17;8.87;;;;;;;;;;5028196;28;20182;-74
2021/11/04 08:18:38;;;;;;;10.03;9.13;;;;;;;;;;5025035;28;20260;-72
2021/11/04 08:21:03;;;;;;;9.50;8.50;;;;;;;;;;5015879;28;20178;-72
2021/11/04 08:23:29;;;;;;;9.30;8.40;;;;;;;;;;5006542;28;20182;-72
2021/11/04 08:25:54;;;;;;;9.47;8.40;;;;;;;;;;5005517;28;20668;-74
2021/11/04 08:28:20;;;;;;;8.40;7.70;;;;;;;;;;5007221;28;20237;-74
2021/11/04 08:30:46;;;;;;;8.07;7.23;;;;;;;;;;5008664;28;20188;-73
2021/11/04 08:33:11;;;;;;;7.80;7.00;;;;;;;;;;5012415;28;20178;-74
2021/11/04 08:35:36;;;;;;;6.93;6.20;;;;;;;;;;5014162;28;20660;-74
2021/11/04 08:38:01;;;;;;;6.60;6.00;;;;;;;;;;5012636;28;20643;-74
2021/11/04 08:40:26;;;;;;;7.33;5.90;;;;;;;;;;5025729;28;20618;-74
2021/11/04 08:42:52;;;;;;;6.90;6.20;;;;;;;;;;5010589;28;20182;-74
2021/11/04 08:45:17;;;;;;;7.07;5.97;;;;;;;;;;5011420;28;20206;-74
2021/11/04 08:47:43;;;;;;;7.80;7.00;;;;;;;;;;5013317;28;20194;-74
2021/11/04 08:50:09;;;;;;;6.63;6.00;;;;;;;;;;5010219;28;20179;-74
2021/11/04 08:52:34;;;;;;;6.40;5.80;;;;;;;;;;5025916;28;20190;-74
2021/11/04 08:55:01;;;;;;;5.97;5.37;;;;;;;;;;5011768;28;20940;-74
2021/11/04 08:57:26;;;;;;;6.67;5.70;;;;;;;;;;5019752;28;20205;-74
2021/11/04 08:59:52;;;;;;;6.70;6.00;;;;;;;;;;5012675;28;20214;-75
2021/11/04 09:02:18;;;;;;;7.53;5.37;;;;;;;;;;5010627;28;20188;-75
2021/11/04 09:04:44;;;;;;;5.63;5.10;;;;;;;;;;5025288;28;20206;-74
2021/11/04 09:07:19;;;;;;;5.83;4.90;;;;;;;;;;5010490;28;20230;-75
2021/11/04 09:09:45;;;;;;;5.93;4.60;;;;;;;;;;5010546;28;20231;-74
2021/11/04 09:12:10;;;;;;;5.30;4.30;;;;;;;;;;5015175;28;20182;-73
2021/11/04 09:14:35;;;;;;;7.00;4.20;;;;;;;;;;5014408;28;20707;-73
2021/11/04 09:17:00;;;;;;;4.77;3.90;;;;;;;;;;5014265;28;20174;-74
2021/11/04 09:19:26;;;;;;;4.67;3.30;;;;;;;;;;5013196;28;20191;-74
2021/11/04 09:21:51;;;;;;;3.73;3.13;;;;;;;;;;5013709;28;20182;-73
2021/11/04 09:24:17;;;;;;;4.77;3.73;;;;;;;;;;5008180;28;20938;-74
2021/11/04 09:26:42;;;;;;;3.57;3.07;;;;;;;;;;5011170;28;20202;-74
2021/11/04 09:29:07;;;;;;;7.17;2.93;;;;;;;;;;5011134;28;20177;-75
2021/11/04 09:31:33;;;;;;;3.23;2.90;;;;;;;;;;5012051;28;20182;-73
2021/11/04 09:33:58;;;;;;;3.13;2.90;;;;;;;;;;5012479;28;20214;-74
2021/11/04 09:36:28;;;;;;;4.60;2.57;;;;;;;;;;5013919;28;20271;-74
2021/11/04 09:38:54;;;;;;;2.60;2.40;;;;;;;;;;5008837;28;20229;-75
2021/11/04 09:41:19;;;;;;;5.27;2.80;;;;;;;;;;5011262;28;20186;-75
2021/11/04 09:43:46;;;;;;;3.20;2.50;;;;;;;;;;5011683;28;20652;-75
2021/11/04 09:46:11;;;;;;;3.73;2.30;;;;;;;;;;5013751;28;20252;-74
2021/11/04 09:48:36;;;;;;;2.53;2.30;;;;;;;;;;5013030;28;20929;-75
2021/11/04 09:51:02;;;;;;;2.90;2.20;;;;;;;;;;5013955;28;20190;-74
2021/11/04 09:53:27;;;;;;;3.03;1.93;;;;;;;;;;5002812;28;20191;-73
2021/11/04 09:55:52;;;;;;;4.43;3.00;;;;;;;;;;5014219;28;20197;-73
2021/11/04 09:58:18;;;;;;;3.83;2.17;;;;;;;;;;5011349;28;20190;-74
2021/11/04 10:00:43;;;;;;;4.47;2.10;;;;;;;;;;5014311;28;20273;-74
2021/11/04 10:03:09;;;;;;;3.88;2.28;;;;;;;;;;5027096;28;20570;-72
2021/11/04 10:05:39;;;;;;;3.67;2.13;;;;;;;;;;5006471;28;20217;-74
2021/11/04 10:08:04;;;;;;;6.03;1.60;;;;;;;;;;5014525;28;20209;-73
2021/11/04 10:10:29;;;;;;;3.78;1.70;;;;;;;;;;5007060;28;21005;-73
2021/11/04 10:13:04;;;;;;;6.57;1.92;;;;;;;;;;5011305;28;20682;-73
2021/11/04 10:15:30;;;;;;;2.75;1.80;;;;;;;;;;5011954;28;20289;-73
2021/11/04 10:18:15;;;;;;;3.10;1.92;;;;;;;;;;5011781;28;20183;-73
2021/11/04 10:20:41;;;;;;;1.50;1.30;;;;;;;;;;5020519;28;20190;-73
2021/11/04 10:23:08;;;;;;;2.85;1.42;;;;;;;;;;5010017;28;20196;-73
2021/11/04 10:25:33;;;;;;;1.70;1.25;;;;;;;;;;5013246;28;20215;-73
2021/11/04 10:27:59;;;;;;;2.28;1.63;;;;;;;;;;5008483;28;20357;-73
2021/11/04 10:30:35;;;;;;;3.53;1.48;;;;;;;;;;5010580;28;20273;-73
2021/11/04 10:33:16;;;;;;;3.35;1.38;;;;;;;;;;5012822;28;20178;-74
2021/11/04 10:35:41;;;;;;;3.55;1.48;;;;;;;;;;5010060;28;20307;-74
2021/11/04 10:38:06;;;;;;;3.17;1.48;;;;;;;;;;5009528;28;20189;-74
2021/11/04 10:40:32;;;;;;;3.33;2.05;;;;;;;;;;5009272;28;20188;-73
2021/11/04 10:42:57;;;;;;;2.38;1.70;;;;;;;;;;5006555;28;20582;-73
2021/11/04 10:45:24;;;;;;;2.13;1.67;;;;;;;;;;5010346;28;20198;-73
2021/11/04 10:48:13;;;;;;;2.22;1.73;;;;;;;;;;5012826;28;20627;-75
2021/11/04 10:50:38;;;;;;;3.92;1.73;;;;;;;;;;5003156;28;20966;-74
2021/11/04 10:53:04;;;;;;;4.63;1.65;;;;;;;;;;5011031;28;20401;-73
2021/11/04 10:55:30;;;;;;;2.42;1.70;;;;;;;;;;5009716;28;20271;-74
2021/11/04 10:57:56;;;;;;;3.67;1.80;;;;;;;;;;5011387;28;20191;-73
2021/11/04 11:00:22;;;;;;;3.97;2.03;;;;;;;;;;5013687;28;20273;-73
2021/11/04 11:02:56;;;;;;;2.97;1.88;;;;;;;;;;5015872;28;20247;-73
2021/11/04 11:05:25;;;;;;;5.25;1.80;;;;;;;;;;5022094;28;20694;-73
2021/11/04 11:07:51;;;;;;;6.68;1.70;;;;;;;;;;5012256;28;20202;-74
2021/11/04 11:10:16;;;;;;;3.97;1.98;;;;;;;;;;5011347;28;20564;-74
2021/11/04 11:12:41;;;;;;;3.95;2.13;;;;;;;;;;5008147;28;20219;-74
2021/11/04 11:15:06;;;;;;;2.88;1.60;;;;;;;;;;5009102;28;20329;-74
2021/11/04 11:17:32;;;;;;;4.93;1.85;;;;;;;;;;5007513;28;20208;-74
2021/11/04 11:19:58;;;;;;;5.70;2.88;;;;;;;;;;5009081;28;20320;-74
2021/11/04 11:22:24;;;;;;;4.40;1.98;;;;;;;;;;5010204;28;20799;-74
2021/11/04 11:24:49;;;;;;;5.65;2.88;;;;;;;;;;5008910;28;20213;-73
2021/11/04 11:27:18;;;;;;;3.55;3.22;;;;;;;;;;5005994;28;21509;-74
2021/11/04 11:29:45;;;;;;;4.88;2.80;;;;;;;;;;5005604;28;20250;-76
2021/11/04 11:32:26;;;;;;;5.43;2.53;;;;;;;;;;5006979;28;20182;-74
2021/11/04 11:35:11;;;;;;;7.55;3.67;;;;;;;;;;5012122;28;20236;-75
2021/11/04 11:37:36;;;;;;;5.70;4.20;;;;;;;;;;5001197;28;20179;-73
2021/11/04 11:40:10;;;;;;;5.10;4.70;;;;;;;;;;5003857;28;20212;-74
2021/11/04 11:42:35;;;;;;;5.40;4.90;;;;;;;;;;5009784;28;20647;-74
2021/11/04 11:45:12;;;;;;;4.40;3.97;;;;;;;;;;5008411;28;20217;-74
2021/11/04 11:47:42;;;;;;;5.18;4.68;;;;;;;;;;5010833;28;20201;-74
2021/11/04 11:50:19;;;;;;;7.20;4.40;;;;;;;;;;5015332;28;20186;-74
2021/11/04 11:52:47;;;;;;;7.30;4.20;;;;;;;;;;5014680;28;20552;-74
2021/11/04 11:55:14;;;;;;;13.63;5.50;;;;;;;;;;5011489;28;20309;-75
2021/11/04 11:57:40;;;;;;;5.35;4.28;;;;;;;;;;5011164;28;20182;-74
2021/11/04 12:00:06;;;;;;;5.38;4.10;;;;;;;;;;5016551;28;20178;-74
2021/11/04 12:02:41;;;;;;;6.70;4.10;;;;;;;;;;5011393;28;20190;-74
2021/11/04 12:05:39;;;;;;;5.90;4.63;;;;;;;;;;5010324;28;20212;-75
2021/11/04 12:08:13;;;;;;;5.45;4.78;;;;;;;;;;4972476;28;20221;-74
2021/11/04 12:10:44;;;;;;;6.78;4.47;;;;;;;;;;5009401;28;20193;-74
2021/11/04 12:13:30;;;;;;;7.45;3.80;;;;;;;;;;5005394;28;20191;-74
2021/11/04 12:16:09;;;;;;;4.93;4.07;;;;;;;;;;5007623;28;20213;-74
2021/11/04 12:18:36;;;;;;;6.93;4.28;;;;;;;;;;5011278;28;20295;-74
2021/11/04 12:21:01;;;;;;;6.18;3.90;;;;;;;;;;5011518;28;20200;-75
2021/11/04 12:23:34;;;;;;;7.20;4.20;;;;;;;;;;5008920;28;20178;-74
2021/11/04 12:25:59;;;;;;;4.45;4.05;;;;;;;;;;5008716;28;20193;-74
2021/11/04 12:28:24;;;;;;;6.10;3.97;;;;;;;;;;5010085;28;20244;-74
2021/11/04 12:30:50;;;;;;;3.88;3.53;;;;;;;;;;5008909;28;20187;-75
2021/11/04 12:33:16;;;;;;;4.72;3.55;;;;;;;;;;5012149;28;20182;-74
2021/11/04 12:35:46;;;;;;;3.83;3.10;;;;;;;;;;5007255;28;20198;-74
2021/11/04 12:38:34;;;;;;;3.53;2.88;;;;;;;;;;5010387;28;20178;-74
2021/11/04 12:41:14;;;;;;;2.80;2.47;;;;;;;;;;5001553;28;20672;-74
2021/11/04 12:43:40;;;;;;;3.50;2.80;;;;;;;;;;5007038;28;20277;-74
2021/11/04 12:46:11;;;;;;;4.05;2.95;;;;;;;;;;5008435;28;20563;-75
2021/11/04 12:48:43;;;;;;;3.25;2.95;;;;;;;;;;5009162;28;20214;-74
2021/11/04 12:51:09;;;;;;;3.17;2.88;;;;;;;;;;5004699;28;20182;-74
2021/11/04 12:53:53;;;;;;;2.22;1.90;;;;;;;;;;5013383;28;20629;-74
2021/11/04 12:56:19;;;;;;;4.45;2.85;;;;;;;;;;5028254;28;20186;-74
2021/11/04 12:58:50;;;;;;;5.00;2.67;;;;;;;;;;5012117;28;20179;-74
2021/11/04 13:01:15;;;;;;;3.35;1.73;;;;;;;;;;5009231;28;20198;-75
2021/11/04 13:03:40;;;;;;;2.80;1.85;;;;;;;;;;5011077;28;20188;-74
2021/11/04 13:06:06;;;;;;;3.47;2.28;;;;;;;;;;5009311;28;20500;-75
2021/11/04 13:08:31;;;;;;;2.53;2.00;;;;;;;;;;5010194;28;20238;-75
2021/11/04 13:11:01;;;;;;;2.22;2.00;;;;;;;;;;5011057;28;20181;-74
2021/11/04 13:13:27;;;;;;;2.30;2.10;;;;;;;;;;5010505;28;20186;-74
2021/11/04 13:15:52;;;;;;;4.45;2.65;;;;;;;;;;5010966;28;20684;-74
2021/11/04 13:18:17;;;;;;;4.53;2.70;;;;;;;;;;5012926;28;20746;-74
2021/11/04 13:20:44;;;;;;;3.35;2.72;;;;;;;;;;5012547;28;20201;-74
2021/11/04 13:23:14;;;;;;;2.70;2.50;;;;;;;;;;5011284;28;20308;-75
2021/11/04 13:25:41;;;;;;;2.83;2.20;;;;;;;;;;5026137;28;20217;-74
2021/11/04 13:28:08;;;;;;;3.53;1.95;;;;;;;;;;5012497;28;20704;-74
2021/11/04 13:30:42;;;;;;;2.88;2.22;;;;;;;;;;5014950;28;20712;-74
2021/11/04 13:33:08;;;;;;;2.78;2.10;;;;;;;;;;5014807;28;20260;-74
2021/11/04 13:35:35;;;;;;;2.55;2.35;;;;;;;;;;5015414;28;20205;-74
2021/11/04 13:38:12;;;;;;;3.45;2.28;;;;;;;;;;5010003;28;20276;-74
2021/11/04 13:40:44;;;;;;;2.25;2.03;;;;;;;;;;5011557;28;20221;-73
2021/11/04 13:43:10;;;;;;;3.45;2.20;;;;;;;;;;5009031;28;20661;-73
2021/11/04 13:45:36;;;;;;;2.50;2.30;;;;;;;;;;5009336;28;20202;-73
2021/11/04 13:48:01;;;;;;;2.72;1.92;;;;;;;;;;5012477;28;20209;-73
2021/11/04 13:50:40;;;;;;;2.63;1.83;;;;;;;;;;5008782;28;20174;-73
2021/11/04 13:53:16;;;;;;;2.45;2.10;;;;;;;;;;5015314;28;20650;-73
2021/11/04 13:55:42;;;;;;;4.30;1.92;;;;;;;;;;5013079;28;20585;-73
2021/11/04 13:58:07;;;;;;;2.17;1.92;;;;;;;;;;5012737;28;20194;-73
2021/11/04 14:00:32;;;;;;;2.00;1.80;;;;;;;;;;5012748;28;20211;-73
2021/11/04 14:03:11;;;;;;;3.67;2.30;;;;;;;;;;5008294;28;20179;-73
2021/11/04 14:05:55;;;;;;;2.67;2.13;;;;;;;;;;5007043;28;20213;-73
2021/11/04 14:08:21;;;;;;;2.28;2.08;;;;;;;;;;5004553;28;20333;-73
2021/11/04 14:10:46;;;;;;;3.97;2.20;;;;;;;;;;5007634;28;20580;-73
2021/11/04 14:13:12;;;;;;;2.72;2.20;;;;;;;;;;5010414;28;20183;-74
2021/11/04 14:15:38;;;;;;;4.07;2.13;;;;;;;;;;5006746;28;20248;-74
2021/11/04 14:18:04;;;;;;;1.85;1.65;;;;;;;;;;5012919;28;20210;-75
2021/11/04 14:20:30;;;;;;;1.67;1.45;;;;;;;;;;5011240;28;20187;-74
2021/11/04 14:22:56;;;;;;;1.73;1.63;;;;;;;;;;5010193;28;20546;-74
2021/11/04 14:25:21;;;;;;;3.35;1.50;;;;;;;;;;5025633;22;20237;-70
2021/11/04 14:27:50;;;;;;;2.38;1.58;;;;;;;;;;5015658;28;20209;-70